createdAt,value
2022-08-28T00:01:12.259Z,16.36
2022-08-28T00:03:43.669Z,16.49
2022-08-28T00:06:12.671Z,16.55
2022-08-28T00:08:43.015Z,16.27
2022-08-28T00:11:10.488Z,16.44
2022-08-28T00:13:38.373Z,16.51
2022-08-28T00:16:06.518Z,16.51
2022-08-28T00:18:34.064Z,16.67
2022-08-28T00:21:01.858Z,16.58
2022-08-28T00:23:42.353Z,16.57
2022-08-28T00:26:32.427Z,16.50
2022-08-28T00:29:00.264Z,16.58
2022-08-28T00:31:27.900Z,16.47
2022-08-28T00:33:55.238Z,16.27
2022-08-28T00:36:24.077Z,16.48
2022-08-28T00:38:51.432Z,16.41
2022-08-28T00:41:18.761Z,16.20
2022-08-28T00:44:16.353Z,16.34
2022-08-28T00:46:46.056Z,16.20
2022-08-28T00:49:17.220Z,16.34
2022-08-28T00:52:03.855Z,16.38
2022-08-28T00:54:35.300Z,16.28
2022-08-28T00:57:06.854Z,16.27
2022-08-28T00:59:35.010Z,16.09
2022-08-28T01:02:02.533Z,16.03
2022-08-28T01:04:32.520Z,16.02
2022-08-28T01:07:05.466Z,16.05
2022-08-28T01:09:35.610Z,15.80
2022-08-28T01:12:08.470Z,15.88
2022-08-28T01:14:39.328Z,15.97
2022-08-28T01:17:08.894Z,16.04
2022-08-28T01:19:40.544Z,15.93
2022-08-28T01:22:37.029Z,16.00
2022-08-28T01:25:14.540Z,16.00
2022-08-28T01:27:42.900Z,15.78
2022-08-28T01:30:16.405Z,15.67
2022-08-28T01:32:49.815Z,15.72
2022-08-28T01:35:20.572Z,15.75
2022-08-28T01:37:48.781Z,15.86
2022-08-28T01:40:23.062Z,15.81
2022-08-28T01:42:50.966Z,15.67
2022-08-28T01:45:20.739Z,15.58
2022-08-28T01:47:48.813Z,15.56
2022-08-28T01:50:21.089Z,15.62
2022-08-28T01:52:48.203Z,15.58
2022-08-28T01:55:16.026Z,15.61
2022-08-28T01:57:51.370Z,15.48
2022-08-28T02:00:19.022Z,15.57
2022-08-28T02:02:48.564Z,15.36
2022-08-28T02:05:15.892Z,15.36
2022-08-28T02:07:43.217Z,15.14
2022-08-28T02:10:12.158Z,15.05
2022-08-28T02:12:39.557Z,14.78
2022-08-28T02:15:08.112Z,14.95
2022-08-28T02:17:35.892Z,15.19
2022-08-28T02:20:05.673Z,15.17
2022-08-28T02:22:33.754Z,15.13
2022-08-28T02:25:02.262Z,15.14
2022-08-28T02:27:29.859Z,15.06
2022-08-28T02:29:58.912Z,15.05
2022-08-28T02:32:27.043Z,15.21
2022-08-28T02:34:54.898Z,15.19
2022-08-28T02:37:23.696Z,15.10
2022-08-28T02:39:55.372Z,15.19
2022-08-28T02:42:23.105Z,15.21
2022-08-28T02:44:51.009Z,15.13
2022-08-28T02:47:21.552Z,15.18
2022-08-28T02:49:49.163Z,15.04
2022-08-28T02:52:18.288Z,15.09
2022-08-28T02:54:46.963Z,15.12
2022-08-28T02:57:14.444Z,15.10
2022-08-28T02:59:43.586Z,14.98
2022-08-28T03:02:11.214Z,14.95
2022-08-28T03:04:39.225Z,14.93
2022-08-28T03:07:13.675Z,14.95
2022-08-28T03:09:41.842Z,14.89
2022-08-28T03:12:10.937Z,14.73
2022-08-28T03:14:38.351Z,14.91
2022-08-28T03:17:07.639Z,14.86
2022-08-28T03:19:35.891Z,14.87
2022-08-28T03:22:03.331Z,14.85
2022-08-28T03:24:30.734Z,14.81
2022-08-28T03:26:58.647Z,14.92
2022-08-28T03:29:26.029Z,14.78
2022-08-28T03:31:53.532Z,14.59
2022-08-28T03:34:21.347Z,14.69
2022-08-28T03:36:48.735Z,14.67
2022-08-28T03:39:16.143Z,14.59
2022-08-28T03:41:43.874Z,14.52
2022-08-28T03:44:11.178Z,14.62
2022-08-28T03:46:39.158Z,14.63
2022-08-28T03:49:06.887Z,14.54
2022-08-28T03:51:35.339Z,14.65
2022-08-28T03:54:03.623Z,14.78
2022-08-28T03:56:31.959Z,14.54
2022-08-28T03:59:02.563Z,14.54
2022-08-28T04:01:30.022Z,14.39
2022-08-28T04:03:57.803Z,14.46
2022-08-28T04:06:25.412Z,14.58
2022-08-28T04:08:52.771Z,14.57
2022-08-28T04:11:20.792Z,14.52
2022-08-28T04:13:48.273Z,14.65
2022-08-28T04:16:19.189Z,14.66
2022-08-28T04:18:49.384Z,14.76
2022-08-28T04:21:20.374Z,14.55
2022-08-28T04:23:48.549Z,14.64
2022-08-28T04:26:19.920Z,14.71
2022-08-28T04:28:48.461Z,14.51
2022-08-28T04:31:17.251Z,14.43
2022-08-28T04:33:45.854Z,14.52
2022-08-28T04:36:16.932Z,14.56
2022-08-28T04:38:44.645Z,14.40
2022-08-28T04:41:14.749Z,14.57
2022-08-28T04:43:43.588Z,14.55
2022-08-28T04:46:13.876Z,14.64
2022-08-28T04:48:42.415Z,14.79
2022-08-28T04:51:12.449Z,14.81
2022-08-28T04:53:40.109Z,14.84
2022-08-28T04:56:10.202Z,14.79
2022-08-28T04:58:38.858Z,14.49
2022-08-28T05:01:08.801Z,14.85
2022-08-28T05:03:36.748Z,14.52
2022-08-28T05:06:05.032Z,14.24
2022-08-28T05:08:32.947Z,13.99
2022-08-28T05:11:14.465Z,14.05
2022-08-28T05:14:04.775Z,14.21
2022-08-28T05:16:34.794Z,14.60
2022-08-28T05:19:03.274Z,14.59
2022-08-28T05:21:30.689Z,14.71
2022-08-28T05:23:59.322Z,14.78
2022-08-28T05:26:29.661Z,14.99
2022-08-28T05:28:59.507Z,15.12
2022-08-28T05:31:27.577Z,15.17
2022-08-28T05:33:55.603Z,15.21
2022-08-28T05:36:25.929Z,15.20
2022-08-28T05:39:02.350Z,15.56
2022-08-28T05:41:31.586Z,15.57
2022-08-28T05:44:05.596Z,15.86
2022-08-28T05:46:33.689Z,16.10
2022-08-28T05:49:01.079Z,16.30
2022-08-28T05:51:28.837Z,16.44
2022-08-28T05:53:57.931Z,16.73
2022-08-28T05:56:30.065Z,17.01
2022-08-28T05:59:00.219Z,16.99
2022-08-28T06:01:29.934Z,17.03
2022-08-28T06:04:00.955Z,17.25
2022-08-28T06:06:31.469Z,17.43
2022-08-28T06:09:29.024Z,17.36
2022-08-28T06:11:59.418Z,17.48
2022-08-28T06:14:27.668Z,18.00
2022-08-28T06:16:56.884Z,18.02
2022-08-28T06:19:27.053Z,18.17
2022-08-28T06:22:00.624Z,18.10
2022-08-28T06:24:30.436Z,17.84
2022-08-28T06:26:59.741Z,18.25
2022-08-28T06:29:28.052Z,18.56
2022-08-28T06:31:58.704Z,18.77
2022-08-28T06:34:27.640Z,18.65
2022-08-28T06:36:55.786Z,18.80
2022-08-28T06:39:23.882Z,18.77
2022-08-28T06:41:52.583Z,19.06
2022-08-28T06:44:21.589Z,19.39
2022-08-28T06:46:51.625Z,19.54
2022-08-28T06:49:19.740Z,19.75
2022-08-28T06:51:47.135Z,20.06
2022-08-28T06:54:22.211Z,19.88
2022-08-28T06:56:54.380Z,20.29
2022-08-28T06:59:21.861Z,20.36
2022-08-28T07:01:49.570Z,20.39
2022-08-28T07:04:17.477Z,20.55
2022-08-28T07:06:47.143Z,20.28
2022-08-28T07:09:15.860Z,20.81
2022-08-28T07:11:46.904Z,21.10
2022-08-28T07:14:14.321Z,21.33
2022-08-28T07:16:41.972Z,21.50
2022-08-28T07:19:12.889Z,21.56
2022-08-28T07:21:43.156Z,21.67
2022-08-28T07:24:14.879Z,21.99
2022-08-28T07:26:43.809Z,22.16
2022-08-28T07:29:12.246Z,22.47
2022-08-28T07:31:45.542Z,22.30
2022-08-28T07:34:14.297Z,22.41
2022-08-28T07:36:42.742Z,22.68
2022-08-28T07:39:12.095Z,22.81
2022-08-28T07:41:43.106Z,23.15
2022-08-28T07:44:31.536Z,23.51
2022-08-28T07:47:04.347Z,23.59
2022-08-28T07:49:33.990Z,23.68
2022-08-28T07:52:03.036Z,23.83
2022-08-28T07:54:30.313Z,24.01
2022-08-28T07:56:57.743Z,24.20
2022-08-28T07:59:25.371Z,24.55
2022-08-28T08:01:53.672Z,24.60
2022-08-28T08:04:23.011Z,24.42
2022-08-28T08:06:57.014Z,24.68
2022-08-28T08:09:27.236Z,24.89
2022-08-28T08:11:56.861Z,25.02
2022-08-28T08:14:25.174Z,25.31
2022-08-28T08:16:53.830Z,25.44
2022-08-28T08:19:21.662Z,25.65
2022-08-28T08:21:54.912Z,25.79
2022-08-28T08:24:28.659Z,26.10
2022-08-28T08:27:00.804Z,26.39
2022-08-28T08:29:36.054Z,26.79
2022-08-28T08:32:07.284Z,26.82
2022-08-28T08:34:38.883Z,26.97
2022-08-28T08:37:07.175Z,27.15
2022-08-28T08:39:36.559Z,27.21
2022-08-28T08:42:09.013Z,27.37
2022-08-28T08:44:42.538Z,27.53
2022-08-28T08:47:24.861Z,27.46
2022-08-28T08:50:17.165Z,27.78
2022-08-28T08:52:44.504Z,27.96
2022-08-28T08:55:32.243Z,27.86
2022-08-28T08:58:06.828Z,27.87
2022-08-28T09:00:59.300Z,27.88
2022-08-28T09:03:55.130Z,27.67
2022-08-28T09:06:52.713Z,28.07
2022-08-28T09:09:41.118Z,28.62
2022-08-28T09:12:17.408Z,28.79
2022-08-28T09:15:10.380Z,29.03
2022-08-28T09:17:51.680Z,28.92
2022-08-28T09:20:32.312Z,29.27
2022-08-28T09:23:02.094Z,29.27
2022-08-28T09:25:44.754Z,29.46
2022-08-28T09:28:18.672Z,29.82
2022-08-28T09:30:59.693Z,29.58
2022-08-28T09:33:37.651Z,29.13
2022-08-28T09:36:37.125Z,29.41
2022-08-28T09:39:17.692Z,29.51
2022-08-28T09:42:37.028Z,29.61
2022-08-28T09:45:21.946Z,29.86
2022-08-28T09:47:52.924Z,29.97
2022-08-28T09:50:32.859Z,29.96
2022-08-28T09:53:22.063Z,29.63
2022-08-28T09:56:08.427Z,29.83
2022-08-28T09:58:39.528Z,29.85
2022-08-28T10:01:24.767Z,29.84
2022-08-28T10:04:11.648Z,30.15
2022-08-28T10:06:40.402Z,30.58
2022-08-28T10:09:31.819Z,30.51
2022-08-28T10:12:37.885Z,30.22
2022-08-28T10:15:18.241Z,30.50
2022-08-28T10:18:14.449Z,30.69
2022-08-28T10:20:56.628Z,30.74
2022-08-28T10:23:42.685Z,30.63
2022-08-28T10:26:16.304Z,30.40
2022-08-28T10:28:49.653Z,30.46
2022-08-28T10:31:25.784Z,30.33
2022-08-28T10:34:16.479Z,30.63
2022-08-28T10:36:50.250Z,30.98
2022-08-28T10:39:34.983Z,30.75
2022-08-28T10:42:06.166Z,30.91
2022-08-28T10:44:49.996Z,31.12
2022-08-28T10:47:20.350Z,31.29
2022-08-28T10:49:53.540Z,31.39
2022-08-28T10:52:32.733Z,31.60
2022-08-28T10:55:21.780Z,31.99
2022-08-28T10:57:57.808Z,31.92
2022-08-28T11:00:27.670Z,32.01
2022-08-28T11:03:03.068Z,32.17
2022-08-28T11:05:39.682Z,32.08
2022-08-28T11:08:26.357Z,32.22
2022-08-28T11:10:55.698Z,32.08
2022-08-28T11:13:41.469Z,32.15
2022-08-28T11:16:18.950Z,32.08
2022-08-28T11:19:10.119Z,32.36
2022-08-28T11:22:09.980Z,32.57
2022-08-28T11:24:47.734Z,32.39
2022-08-28T11:27:19.519Z,32.52
2022-08-28T11:30:26.106Z,32.04
2022-08-28T11:32:53.625Z,32.36
2022-08-28T11:35:21.310Z,32.17
2022-08-28T11:37:55.069Z,32.22
2022-08-28T11:40:48.507Z,32.11
2022-08-28T11:43:16.505Z,31.94
2022-08-28T11:45:47.698Z,32.07
2022-08-28T11:48:39.895Z,32.08
2022-08-28T11:51:33.160Z,32.01
2022-08-28T11:54:21.039Z,31.79
2022-08-28T11:57:08.030Z,32.23
2022-08-28T11:59:55.306Z,32.57
2022-08-28T12:02:39.312Z,32.41
2022-08-28T12:05:30.434Z,32.33
2022-08-28T12:07:59.754Z,32.23
2022-08-28T12:10:30.977Z,32.04
2022-08-28T12:13:01.078Z,32.31
2022-08-28T12:15:28.920Z,32.70
2022-08-28T12:18:36.707Z,32.79
2022-08-28T12:21:08.710Z,32.94
2022-08-28T12:23:40.568Z,33.13
2022-08-28T12:26:24.385Z,33.00
2022-08-28T12:29:03.038Z,32.90
2022-08-28T12:32:12.846Z,33.15
2022-08-28T12:34:58.855Z,33.30
2022-08-28T12:37:43.979Z,33.34
2022-08-28T12:40:38.274Z,32.94
2022-08-28T12:43:11.510Z,33.23
2022-08-28T12:45:57.195Z,33.09
2022-08-28T12:48:27.883Z,32.66
2022-08-28T12:51:08.122Z,32.60
2022-08-28T12:53:43.574Z,32.66
2022-08-28T12:56:17.145Z,32.85
2022-08-28T12:58:46.276Z,32.91
2022-08-28T13:01:23.913Z,33.01
2022-08-28T13:03:55.336Z,32.77
2022-08-28T13:06:33.067Z,32.87
2022-08-28T13:09:04.476Z,32.99
2022-08-28T13:11:38.870Z,33.50
2022-08-28T13:14:08.235Z,33.64
2022-08-28T13:16:45.638Z,33.22
2022-08-28T13:19:29.383Z,32.86
2022-08-28T13:22:01.976Z,33.10
2022-08-28T13:24:35.669Z,33.13
2022-08-28T13:27:12.525Z,33.04
2022-08-28T13:29:57.380Z,33.46
2022-08-28T13:32:28.400Z,33.59
2022-08-28T13:35:08.358Z,33.78
2022-08-28T13:37:48.244Z,33.58
2022-08-28T13:40:53.265Z,33.42
2022-08-28T13:43:11.225Z,33.19
2022-08-28T13:45:44.105Z,33.10
2022-08-28T13:48:14.666Z,32.98
2022-08-28T13:50:51.687Z,32.98
2022-08-28T13:53:20.935Z,32.70
2022-08-28T13:55:50.618Z,32.87
2022-08-28T13:58:18.581Z,33.14
2022-08-28T14:00:48.784Z,32.86
2022-08-28T14:03:35.872Z,32.71
2022-08-28T14:06:13.294Z,32.53
2022-08-28T14:08:43.576Z,31.54
2022-08-28T14:11:13.391Z,31.47
2022-08-28T14:13:46.872Z,31.44
2022-08-28T14:16:25.191Z,31.79
2022-08-28T14:18:53.966Z,31.81
2022-08-28T14:21:24.707Z,31.00
2022-08-28T14:23:55.548Z,31.66
2022-08-28T14:26:23.350Z,31.40
2022-08-28T14:28:50.978Z,31.21
2022-08-28T14:31:18.791Z,31.11
2022-08-28T14:33:47.198Z,31.34
2022-08-28T14:36:16.624Z,31.51
2022-08-28T14:38:44.562Z,32.10
2022-08-28T14:41:14.934Z,32.54
2022-08-28T14:43:42.668Z,33.25
2022-08-28T14:46:19.840Z,33.85
2022-08-28T14:48:48.282Z,34.55
2022-08-28T14:51:16.371Z,35.11
2022-08-28T14:53:44.966Z,35.24
2022-08-28T14:56:12.645Z,35.63
2022-08-28T14:58:40.087Z,35.67
2022-08-28T15:01:07.832Z,36.07
2022-08-28T15:03:36.317Z,36.10
2022-08-28T15:06:09.863Z,35.66
2022-08-28T15:08:38.368Z,36.66
2022-08-28T15:11:08.039Z,36.41
2022-08-28T15:13:35.656Z,36.65
2022-08-28T15:16:15.482Z,36.04
2022-08-28T15:18:45.690Z,36.24
2022-08-28T15:21:24.832Z,36.00
2022-08-28T15:23:57.935Z,35.62
2022-08-28T15:26:27.351Z,35.25
2022-08-28T15:28:58.419Z,34.97
2022-08-28T15:31:26.496Z,35.98
2022-08-28T15:33:54.889Z,35.72
2022-08-28T15:36:22.309Z,37.03
2022-08-28T15:39:08.723Z,37.15
2022-08-28T15:41:38.163Z,37.02
2022-08-28T15:44:06.076Z,37.05
2022-08-28T15:46:35.202Z,36.91
2022-08-28T15:49:05.219Z,35.99
2022-08-28T15:51:36.197Z,34.70
2022-08-28T15:54:03.693Z,34.60
2022-08-28T15:56:31.122Z,34.46
2022-08-28T15:58:58.786Z,33.63
2022-08-28T16:01:26.281Z,32.24
2022-08-28T16:03:54.061Z,30.80
2022-08-28T16:06:22.627Z,30.97
2022-08-28T16:08:50.370Z,30.68
2022-08-28T16:11:20.845Z,30.40
2022-08-28T16:13:48.727Z,30.12
2022-08-28T16:16:17.057Z,29.72
2022-08-28T16:18:45.159Z,29.18
2022-08-28T16:21:14.154Z,29.02
2022-08-28T16:23:42.165Z,28.91
2022-08-28T16:26:10.281Z,29.11
2022-08-28T16:28:38.578Z,29.05
2022-08-28T16:31:07.540Z,28.26
2022-08-28T16:33:46.820Z,28.16
2022-08-28T16:36:15.869Z,27.78
2022-08-28T16:38:46.755Z,27.53
2022-08-28T16:41:22.064Z,27.53
2022-08-28T16:43:50.565Z,27.30
2022-08-28T16:46:22.317Z,27.27
2022-08-28T16:48:49.773Z,27.03
2022-08-28T16:51:20.969Z,26.95
2022-08-28T16:53:48.450Z,26.70
2022-08-28T16:56:17.855Z,26.79
2022-08-28T16:58:45.717Z,26.66
2022-08-28T17:01:13.882Z,26.36
2022-08-28T17:03:42.067Z,26.18
2022-08-28T17:06:30.678Z,26.06
2022-08-28T17:08:58.459Z,26.21
2022-08-28T17:11:27.257Z,25.77
2022-08-28T17:13:55.567Z,25.27
2022-08-28T17:16:24.283Z,25.44
2022-08-28T17:18:52.940Z,25.51
2022-08-28T17:21:41.233Z,25.20
2022-08-28T17:24:12.707Z,24.99
2022-08-28T17:26:41.548Z,25.11
2022-08-28T17:29:09.550Z,24.95
2022-08-28T17:31:37.420Z,24.84
2022-08-28T17:34:07.403Z,24.46
2022-08-28T17:36:37.544Z,24.29
2022-08-28T17:39:08.681Z,24.43
2022-08-28T17:41:37.081Z,24.65
2022-08-28T17:44:05.280Z,24.74
2022-08-28T17:46:37.700Z,24.60
2022-08-28T17:49:08.014Z,24.53
2022-08-28T17:51:42.643Z,24.43
2022-08-28T17:54:13.482Z,24.42
2022-08-28T17:56:41.868Z,24.41
2022-08-28T17:59:11.993Z,24.36
2022-08-28T18:01:41.204Z,24.23
2022-08-28T18:04:09.252Z,24.16
2022-08-28T18:06:37.380Z,23.26
2022-08-28T18:09:06.325Z,23.10
2022-08-28T18:11:34.442Z,23.49
2022-08-28T18:14:01.892Z,23.51
2022-08-28T18:16:32.553Z,23.43
2022-08-28T18:19:02.046Z,23.18
2022-08-28T18:21:30.575Z,23.00
2022-08-28T18:23:58.281Z,23.14
2022-08-28T18:26:26.483Z,23.12
2022-08-28T18:28:54.105Z,23.18
2022-08-28T18:31:22.291Z,23.17
2022-08-28T18:33:50.440Z,22.95
2022-08-28T18:36:18.127Z,23.21
2022-08-28T18:38:47.420Z,22.63
2022-08-28T18:41:16.067Z,22.22
2022-08-28T18:43:43.634Z,22.42
2022-08-28T18:46:12.416Z,22.52
2022-08-28T18:48:42.654Z,22.52
2022-08-28T18:51:12.427Z,22.19
2022-08-28T18:53:43.450Z,22.43
2022-08-28T18:56:12.476Z,22.71
2022-08-28T18:58:43.247Z,22.12
2022-08-28T19:01:10.879Z,22.11
2022-08-28T19:03:38.855Z,22.03
2022-08-28T19:06:06.819Z,22.11
2022-08-28T19:08:37.940Z,22.26
2022-08-28T19:11:10.715Z,22.10
2022-08-28T19:13:38.330Z,21.97
2022-08-28T19:16:06.472Z,21.87
2022-08-28T19:18:34.212Z,22.00
2022-08-28T19:21:10.728Z,21.83
2022-08-28T19:23:53.864Z,21.77
2022-08-28T19:38:30.917Z,21.62
2022-08-28T19:45:26.264Z,21.57
2022-08-28T19:48:10.310Z,21.30
2022-08-28T19:56:56.869Z,21.31
2022-08-28T19:59:27.211Z,21.38
2022-08-28T20:01:57.318Z,21.34
2022-08-28T20:07:06.967Z,21.36
2022-08-28T20:09:48.122Z,21.12
2022-08-28T20:15:01.374Z,20.99
2022-08-28T20:17:32.093Z,20.95
2022-08-28T20:20:03.576Z,20.74
2022-08-28T20:22:32.152Z,20.86
2022-08-28T20:25:00.463Z,20.91
2022-08-28T20:27:28.098Z,20.90
2022-08-28T20:29:55.511Z,20.97
2022-08-28T20:32:23.234Z,20.62
2022-08-28T20:34:50.667Z,20.66
2022-08-28T20:37:19.651Z,20.62
2022-08-28T20:39:47.527Z,20.55
2022-08-28T20:42:14.973Z,20.68
2022-08-28T20:44:42.560Z,20.74
2022-08-28T20:47:10.299Z,20.56
2022-08-28T20:49:39.297Z,20.71
2022-08-28T20:52:07.081Z,20.57
2022-08-28T20:54:38.777Z,20.40
2022-08-28T20:57:11.889Z,20.49
2022-08-28T20:59:42.611Z,20.51
2022-08-28T21:02:14.744Z,20.60
2022-08-28T21:04:44.347Z,20.30
2022-08-28T21:07:13.688Z,20.39
2022-08-28T21:10:05.939Z,20.47
2022-08-28T21:12:28.997Z,20.48
2022-08-28T21:14:56.576Z,20.29
2022-08-28T21:17:29.544Z,20.21
2022-08-28T21:20:04.289Z,20.26
2022-08-28T21:22:34.577Z,20.22
2022-08-28T21:25:08.429Z,20.00
2022-08-28T21:27:38.680Z,20.03
2022-08-28T21:30:07.645Z,20.13
2022-08-28T21:32:35.696Z,19.98
2022-08-28T21:35:05.285Z,19.92
2022-08-28T21:37:36.650Z,20.06
2022-08-28T21:40:08.584Z,19.47
2022-08-28T21:42:36.933Z,19.22
2022-08-28T21:45:11.240Z,19.53
2022-08-28T21:47:41.251Z,19.62
2022-08-28T21:50:09.166Z,19.61
2022-08-28T21:52:36.628Z,19.56
2022-08-28T21:55:08.369Z,19.67
2022-08-28T21:57:36.526Z,19.65
2022-08-28T22:00:10.486Z,19.57
2022-08-28T22:02:37.804Z,19.36
2022-08-28T22:05:05.798Z,19.19
2022-08-28T22:07:33.413Z,19.26
2022-08-28T22:10:00.925Z,19.26
2022-08-28T22:12:28.577Z,19.29
2022-08-28T22:14:58.394Z,19.33
2022-08-28T22:17:27.004Z,19.41
2022-08-28T22:19:57.985Z,19.35
2022-08-28T22:22:43.952Z,19.38
2022-08-28T22:25:11.625Z,19.17
2022-08-28T22:27:39.229Z,19.16
2022-08-28T22:30:07.096Z,18.82
2022-08-28T22:32:34.789Z,18.70
2022-08-28T22:35:02.241Z,18.93
2022-08-28T22:37:30.233Z,18.70
2022-08-28T22:39:59.777Z,18.63
2022-08-28T22:42:27.056Z,18.48
2022-08-28T22:44:54.842Z,18.31
2022-08-28T22:47:23.031Z,18.48
2022-08-28T22:49:50.321Z,18.58
2022-08-28T22:52:17.739Z,18.70
2022-08-28T22:54:45.786Z,18.79
2022-08-28T22:57:14.572Z,18.64
2022-08-28T22:59:42.335Z,18.55
2022-08-28T23:02:12.214Z,18.57
2022-08-28T23:04:39.641Z,18.62
2022-08-28T23:07:07.030Z,18.63
2022-08-28T23:09:36.005Z,18.56
2022-08-28T23:12:07.982Z,18.44
2022-08-28T23:14:35.848Z,18.07
2022-08-28T23:17:04.147Z,17.71
2022-08-28T23:19:33.052Z,17.81
2022-08-28T23:22:01.223Z,18.03
2022-08-28T23:24:28.886Z,18.16
2022-08-28T23:26:56.235Z,18.24
2022-08-28T23:29:24.134Z,18.21
2022-08-28T23:34:34.354Z,18.11
2022-08-28T23:37:03.080Z,18.09
2022-08-28T23:39:30.972Z,18.09
2022-08-28T23:41:58.636Z,18.11
2022-08-28T23:44:25.986Z,18.15
2022-08-28T23:46:53.994Z,18.10
2022-08-28T23:49:26.712Z,18.11
2022-08-28T23:51:54.346Z,18.25
2022-08-28T23:54:22.037Z,18.09
2022-08-28T23:56:49.454Z,17.63
2022-08-28T23:59:21.280Z,17.95
